createdAt,value
2022-11-28T00:01:46.507Z,4.50
2022-11-28T00:11:51.373Z,4.48
2022-11-28T00:21:55.437Z,4.46
2022-11-28T00:31:59.283Z,4.48
2022-11-28T00:42:02.851Z,4.47
2022-11-28T00:52:06.518Z,4.47
2022-11-28T01:02:10.316Z,4.43
2022-11-28T01:12:15.067Z,4.45
2022-11-28T01:22:18.887Z,4.39
2022-11-28T01:32:22.598Z,4.37
2022-11-28T01:42:26.270Z,4.45
2022-11-28T01:52:30.132Z,4.40
2022-11-28T02:02:37.415Z,4.44
2022-11-28T02:12:51.385Z,4.42
2022-11-28T02:23:13.941Z,4.44
2022-11-28T02:33:43.299Z,4.48
2022-11-28T02:44:04.268Z,4.43
2022-11-28T02:58:01.141Z,4.38
2022-11-28T03:08:38.752Z,4.30
2022-11-28T03:19:12.990Z,4.21
2022-11-28T03:29:33.041Z,4.14
2022-11-28T03:39:40.327Z,4.00
2022-11-28T03:49:51.678Z,3.92
2022-11-28T03:59:58.415Z,3.71
2022-11-28T04:25:16.293Z,3.70
2022-11-28T04:35:27.445Z,3.69
2022-11-28T04:45:36.143Z,3.73
2022-11-28T04:55:49.344Z,3.69
2022-11-28T05:05:54.425Z,3.61
2022-11-28T05:24:54.015Z,3.41
2022-11-28T05:34:58.118Z,3.33
2022-11-28T05:45:02.493Z,3.38
2022-11-28T05:55:07.404Z,3.38
2022-11-28T06:26:41.552Z,3.42
2022-11-28T06:36:45.590Z,3.48
2022-11-28T06:46:49.284Z,3.63
2022-11-28T07:05:35.119Z,3.65
2022-11-28T07:22:26.223Z,3.57
2022-11-28T07:32:29.981Z,3.51
2022-11-28T07:42:33.730Z,3.67
2022-11-28T07:52:40.811Z,3.79
2022-11-28T08:02:44.779Z,3.91
2022-11-28T08:16:16.330Z,4.02
2022-11-28T08:26:28.768Z,4.11
2022-11-28T08:36:34.659Z,4.23
2022-11-28T08:46:38.374Z,4.24
2022-11-28T09:09:25.076Z,4.07
2022-11-28T09:21:39.220Z,3.92
2022-11-28T09:35:08.369Z,3.92
2022-11-28T09:45:23.808Z,3.96
2022-11-28T09:55:40.715Z,4.08
2022-11-28T10:14:55.192Z,4.23
2022-11-28T10:25:05.006Z,4.22
2022-11-28T10:36:48.020Z,4.46
2022-11-28T10:49:52.920Z,4.61
2022-11-28T11:00:15.985Z,4.73
2022-11-28T11:10:38.205Z,5.00
2022-11-28T11:20:41.794Z,5.18
2022-11-28T11:30:47.049Z,5.31
2022-11-28T11:40:52.255Z,5.18
2022-11-28T11:50:56.181Z,5.07
2022-11-28T12:01:00.991Z,5.10
2022-11-28T12:11:16.833Z,5.18
2022-11-28T12:21:25.471Z,5.21
2022-11-28T12:31:41.519Z,5.27
2022-11-28T12:42:01.214Z,5.40
2022-11-28T12:52:20.022Z,5.54
2022-11-28T13:02:32.887Z,5.57
2022-11-28T13:12:49.039Z,5.54
2022-11-28T13:23:14.809Z,5.47
2022-11-28T13:33:41.598Z,5.44
2022-11-28T13:44:09.209Z,5.34
2022-11-28T13:54:19.554Z,5.23
2022-11-28T14:08:07.653Z,5.11
2022-11-28T14:18:56.813Z,4.96
2022-11-28T14:29:05.957Z,4.90
2022-11-28T14:39:29.826Z,4.81
2022-11-28T14:49:33.917Z,4.68
2022-11-28T14:59:42.300Z,4.57
2022-11-28T15:09:53.388Z,4.42
2022-11-28T15:39:04.351Z,3.95
2022-11-28T15:49:30.643Z,3.91
2022-11-28T15:59:34.378Z,3.91
2022-11-28T16:09:38.794Z,3.88
2022-11-28T22:54:25.350Z,3.66
2022-11-28T23:04:29.829Z,3.53
2022-11-28T23:14:33.674Z,3.40
2022-11-28T23:24:37.933Z,3.25
2022-11-28T23:34:42.109Z,3.08
2022-11-28T23:44:46.644Z,2.98
2022-11-28T23:54:50.492Z,2.85
